createdAt,value
2022-09-03T00:24:45.637Z,13.75
2022-09-03T00:54:45.644Z,13.44
2022-09-03T01:24:45.655Z,13.13
2022-09-03T01:54:45.654Z,12.94
2022-09-03T02:24:45.668Z,12.69
2022-09-03T02:54:45.668Z,12.5
2022-09-03T03:24:45.687Z,12.31
2022-09-03T03:54:45.684Z,12.19
2022-09-03T04:24:45.691Z,11.94
2022-09-03T04:54:45.695Z,12.06
2022-09-03T05:24:45.697Z,12.75
2022-09-03T05:54:45.711Z,13.13
2022-09-03T06:24:45.693Z,13.75
2022-09-03T06:54:45.689Z,14.88
2022-09-03T07:24:45.701Z,16.31
2022-09-03T07:54:45.705Z,17.44
2022-09-03T08:24:45.708Z,17.5
2022-09-03T08:54:45.712Z,18.25
2022-09-03T09:24:45.731Z,20.06
2022-09-03T09:54:45.755Z,19.75
2022-09-03T10:24:45.749Z,20.44
2022-09-03T10:54:45.745Z,21.44
2022-09-03T11:24:45.751Z,22.75
2022-09-03T11:54:45.753Z,24.44
2022-09-03T12:24:45.755Z,25.81
2022-09-03T12:54:45.866Z,26.56
2022-09-03T13:24:45.778Z,24.81
2022-09-03T13:54:49.494Z,24.13
2022-09-03T14:24:45.763Z,24.44
2022-09-03T14:54:45.781Z,23.81
2022-09-03T15:24:45.771Z,23.38
2022-09-03T15:54:45.775Z,22.19
2022-09-03T16:24:45.773Z,21.56
2022-09-03T16:54:55.627Z,18.69
2022-09-03T17:24:45.798Z,17.88
2022-09-03T17:54:45.819Z,17.38
2022-09-03T18:24:45.840Z,17.13
2022-09-03T18:55:44.313Z,16.63
2022-09-03T19:25:44.178Z,16.38
2022-09-03T19:55:44.203Z,16.31
2022-09-03T20:25:44.210Z,16.06
2022-09-03T20:55:44.234Z,16.06
2022-09-03T21:25:44.234Z,15.63
2022-09-03T21:55:44.219Z,15.06
2022-09-03T22:25:44.225Z,14.81
2022-09-03T22:55:44.277Z,14.63
2022-09-03T23:25:44.294Z,14.44
2022-09-03T23:55:44.232Z,14.31
